sensor_id;sensor_type;location;lat;lon;timestamp;temperature;humidity
13332;DHT22;6735;51.456;12.626;2022-08-04T00:01:31;20.80;62.10
13332;DHT22;6735;51.456;12.626;2022-08-04T00:04:02;20.70;62.10
13332;DHT22;6735;51.456;12.626;2022-08-04T00:07:25;20.70;62.10
13332;DHT22;6735;51.456;12.626;2022-08-04T00:10:01;20.70;62.80
13332;DHT22;6735;51.456;12.626;2022-08-04T00:12:29;20.70;62.50
13332;DHT22;6735;51.456;12.626;2022-08-04T00:14:58;20.60;62.50
13332;DHT22;6735;51.456;12.626;2022-08-04T00:17:30;20.60;62.60
13332;DHT22;6735;51.456;12.626;2022-08-04T00:20:00;20.60;62.70
13332;DHT22;6735;51.456;12.626;2022-08-04T00:22:27;20.60;63.10
13332;DHT22;6735;51.456;12.626;2022-08-04T00:24:55;20.50;63.30
13332;DHT22;6735;51.456;12.626;2022-08-04T00:27:20;20.50;63.40
13332;DHT22;6735;51.456;12.626;2022-08-04T00:29:46;20.40;63.60
13332;DHT22;6735;51.456;12.626;2022-08-04T00:32:12;20.40;63.80
13332;DHT22;6735;51.456;12.626;2022-08-04T00:34:38;20.30;64.00
13332;DHT22;6735;51.456;12.626;2022-08-04T00:37:05;20.20;64.10
13332;DHT22;6735;51.456;12.626;2022-08-04T00:39:32;20.20;64.20
13332;DHT22;6735;51.456;12.626;2022-08-04T00:42:20;20.20;64.40
13332;DHT22;6735;51.456;12.626;2022-08-04T00:47:37;20.10;65.50
13332;DHT22;6735;51.456;12.626;2022-08-04T00:50:09;20.10;65.20
13332;DHT22;6735;51.456;12.626;2022-08-04T01:00:35;20.00;66.00
13332;DHT22;6735;51.456;12.626;2022-08-04T01:03:22;19.90;66.10
13332;DHT22;6735;51.456;12.626;2022-08-04T01:06:03;19.80;66.40
13332;DHT22;6735;51.456;12.626;2022-08-04T01:08:54;19.80;66.40
13332;DHT22;6735;51.456;12.626;2022-08-04T01:11:57;19.80;66.70
13332;DHT22;6735;51.456;12.626;2022-08-04T01:17:37;19.70;68.10
13332;DHT22;6735;51.456;12.626;2022-08-04T01:20:09;19.70;67.50
13332;DHT22;6735;51.456;12.626;2022-08-04T01:25:28;19.70;68.10
13332;DHT22;6735;51.456;12.626;2022-08-04T01:30:56;19.70;69.00
13332;DHT22;6735;51.456;12.626;2022-08-04T01:33:23;19.70;68.30
13332;DHT22;6735;51.456;12.626;2022-08-04T01:35:55;19.70;68.40
13332;DHT22;6735;51.456;12.626;2022-08-04T01:38:29;19.70;68.50
13332;DHT22;6735;51.456;12.626;2022-08-04T01:41:01;19.70;68.60
13332;DHT22;6735;51.456;12.626;2022-08-04T01:43:29;19.70;68.70
13332;DHT22;6735;51.456;12.626;2022-08-04T01:45:58;19.60;68.50
13332;DHT22;6735;51.456;12.626;2022-08-04T01:48:25;19.60;68.50
13332;DHT22;6735;51.456;12.626;2022-08-04T01:50:52;19.60;68.50
13332;DHT22;6735;51.456;12.626;2022-08-04T01:53:19;19.60;68.60
13332;DHT22;6735;51.456;12.626;2022-08-04T01:55:47;19.60;68.60
13332;DHT22;6735;51.456;12.626;2022-08-04T01:58:17;19.60;68.50
13332;DHT22;6735;51.456;12.626;2022-08-04T02:00:49;19.60;68.50
13332;DHT22;6735;51.456;12.626;2022-08-04T02:03:19;19.60;68.60
13332;DHT22;6735;51.456;12.626;2022-08-04T02:05:47;19.60;68.60
13332;DHT22;6735;51.456;12.626;2022-08-04T02:08:20;19.60;68.60
13332;DHT22;6735;51.456;12.626;2022-08-04T02:10:56;19.60;68.70
13332;DHT22;6735;51.456;12.626;2022-08-04T02:13:34;19.60;68.80
13332;DHT22;6735;51.456;12.626;2022-08-04T02:16:23;19.50;68.80
13332;DHT22;6735;51.456;12.626;2022-08-04T02:19:03;19.50;68.80
13332;DHT22;6735;51.456;12.626;2022-08-04T02:21:33;19.50;69.00
13332;DHT22;6735;51.456;12.626;2022-08-04T02:24:02;19.50;69.10
13332;DHT22;6735;51.456;12.626;2022-08-04T02:26:31;19.50;69.30
13332;DHT22;6735;51.456;12.626;2022-08-04T02:29:16;19.50;69.40
13332;DHT22;6735;51.456;12.626;2022-08-04T02:32:03;19.40;69.30
13332;DHT22;6735;51.456;12.626;2022-08-04T02:34:40;19.40;69.60
13332;DHT22;6735;51.456;12.626;2022-08-04T02:37:08;19.40;69.40
13332;DHT22;6735;51.456;12.626;2022-08-04T02:39:35;19.40;69.40
13332;DHT22;6735;51.456;12.626;2022-08-04T02:42:04;19.40;69.40
13332;DHT22;6735;51.456;12.626;2022-08-04T02:44:30;19.40;69.40
13332;DHT22;6735;51.456;12.626;2022-08-04T02:46:58;19.40;69.50
13332;DHT22;6735;51.456;12.626;2022-08-04T02:49:25;19.30;69.50
13332;DHT22;6735;51.456;12.626;2022-08-04T02:51:53;19.30;69.70
13332;DHT22;6735;51.456;12.626;2022-08-04T02:54:24;19.30;69.60
13332;DHT22;6735;51.456;12.626;2022-08-04T02:56:51;19.30;69.70
13332;DHT22;6735;51.456;12.626;2022-08-04T02:59:21;19.20;70.00
13332;DHT22;6735;51.456;12.626;2022-08-04T03:01:48;19.20;70.00
13332;DHT22;6735;51.456;12.626;2022-08-04T03:10:06;19.20;70.70
13332;DHT22;6735;51.456;12.626;2022-08-04T03:13:03;19.20;70.80
13332;DHT22;6735;51.456;12.626;2022-08-04T03:15:53;19.20;70.70
13332;DHT22;6735;51.456;12.626;2022-08-04T03:21:55;19.20;70.60
13332;DHT22;6735;51.456;12.626;2022-08-04T03:27:30;19.10;70.70
13332;DHT22;6735;51.456;12.626;2022-08-04T03:30:12;19.20;70.90
13332;DHT22;6735;51.456;12.626;2022-08-04T03:33:14;19.10;70.80
13332;DHT22;6735;51.456;12.626;2022-08-04T03:39:02;19.20;71.20
13332;DHT22;6735;51.456;12.626;2022-08-04T03:42:19;19.20;71.00
13332;DHT22;6735;51.456;12.626;2022-08-04T03:45:09;19.20;71.40
13332;DHT22;6735;51.456;12.626;2022-08-04T03:51:35;19.20;71.60
13332;DHT22;6735;51.456;12.626;2022-08-04T03:57:29;19.20;71.40
13332;DHT22;6735;51.456;12.626;2022-08-04T04:00:12;19.30;71.40
13332;DHT22;6735;51.456;12.626;2022-08-04T04:03:02;19.30;71.30
13332;DHT22;6735;51.456;12.626;2022-08-04T04:05:42;19.30;71.40
13332;DHT22;6735;51.456;12.626;2022-08-04T04:08:49;19.40;71.30
13332;DHT22;6735;51.456;12.626;2022-08-04T04:22:51;19.50;71.60
13332;DHT22;6735;51.456;12.626;2022-08-04T04:25:48;19.50;71.10
13332;DHT22;6735;51.456;12.626;2022-08-04T04:31:41;19.60;71.30
13332;DHT22;6735;51.456;12.626;2022-08-04T04:36:48;19.70;71.00
13332;DHT22;6735;51.456;12.626;2022-08-04T04:39:25;19.80;70.70
13332;DHT22;6735;51.456;12.626;2022-08-04T04:42:19;19.90;70.50
13332;DHT22;6735;51.456;12.626;2022-08-04T04:45:02;20.00;70.60
13332;DHT22;6735;51.456;12.626;2022-08-04T04:47:45;20.20;70.30
13332;DHT22;6735;51.456;12.626;2022-08-04T04:50:50;20.20;70.00
13332;DHT22;6735;51.456;12.626;2022-08-04T04:53:32;20.30;69.90
13332;DHT22;6735;51.456;12.626;2022-08-04T04:56:26;20.40;69.90
13332;DHT22;6735;51.456;12.626;2022-08-04T04:58:54;20.60;69.70
13332;DHT22;6735;51.456;12.626;2022-08-04T05:07:44;21.30;68.00
13332;DHT22;6735;51.456;12.626;2022-08-04T05:10:45;22.40;64.80
13332;DHT22;6735;51.456;12.626;2022-08-04T05:13:37;22.70;64.40
13332;DHT22;6735;51.456;12.626;2022-08-04T05:16:31;23.90;61.70
13332;DHT22;6735;51.456;12.626;2022-08-04T05:19:13;25.40;56.10
13332;DHT22;6735;51.456;12.626;2022-08-04T05:21:47;25.90;55.20
13332;DHT22;6735;51.456;12.626;2022-08-04T05:24:17;25.30;58.50
13332;DHT22;6735;51.456;12.626;2022-08-04T05:26:47;24.80;58.50
13332;DHT22;6735;51.456;12.626;2022-08-04T05:29:35;25.10;57.90
13332;DHT22;6735;51.456;12.626;2022-08-04T05:32:04;26.10;52.50
13332;DHT22;6735;51.456;12.626;2022-08-04T05:34:36;26.70;53.60
13332;DHT22;6735;51.456;12.626;2022-08-04T05:37:08;27.80;51.20
13332;DHT22;6735;51.456;12.626;2022-08-04T05:39:56;27.70;50.90
13332;DHT22;6735;51.456;12.626;2022-08-04T05:42:23;28.40;46.70
13332;DHT22;6735;51.456;12.626;2022-08-04T05:44:49;29.20;48.40
13332;DHT22;6735;51.456;12.626;2022-08-04T05:47:16;30.10;47.00
13332;DHT22;6735;51.456;12.626;2022-08-04T05:49:42;30.80;45.30
13332;DHT22;6735;51.456;12.626;2022-08-04T05:52:09;31.40;44.10
13332;DHT22;6735;51.456;12.626;2022-08-04T05:54:36;31.70;43.20
13332;DHT22;6735;51.456;12.626;2022-08-04T05:57:04;31.70;42.80
13332;DHT22;6735;51.456;12.626;2022-08-04T05:59:30;31.80;42.60
13332;DHT22;6735;51.456;12.626;2022-08-04T06:01:58;32.00;41.90
13332;DHT22;6735;51.456;12.626;2022-08-04T06:04:29;32.30;41.30
13332;DHT22;6735;51.456;12.626;2022-08-04T06:06:55;32.30;40.30
13332;DHT22;6735;51.456;12.626;2022-08-04T06:09:21;32.50;40.70
13332;DHT22;6735;51.456;12.626;2022-08-04T06:11:47;32.70;40.00
13332;DHT22;6735;51.456;12.626;2022-08-04T06:14:14;33.10;39.60
13332;DHT22;6735;51.456;12.626;2022-08-04T06:16:42;34.00;38.10
13332;DHT22;6735;51.456;12.626;2022-08-04T06:19:10;34.20;37.60
13332;DHT22;6735;51.456;12.626;2022-08-04T06:21:39;34.00;38.00
13332;DHT22;6735;51.456;12.626;2022-08-04T06:24:09;34.50;37.30
13332;DHT22;6735;51.456;12.626;2022-08-04T06:26:36;35.20;35.80
13332;DHT22;6735;51.456;12.626;2022-08-04T06:29:03;35.40;35.80
13332;DHT22;6735;51.456;12.626;2022-08-04T06:31:30;35.10;35.00
13332;DHT22;6735;51.456;12.626;2022-08-04T06:34:09;35.10;34.10
13332;DHT22;6735;51.456;12.626;2022-08-04T06:36:36;34.50;32.90
13332;DHT22;6735;51.456;12.626;2022-08-04T06:39:04;34.50;33.60
13332;DHT22;6735;51.456;12.626;2022-08-04T06:41:30;34.20;33.60
13332;DHT22;6735;51.456;12.626;2022-08-04T06:44:01;34.00;33.50
13332;DHT22;6735;51.456;12.626;2022-08-04T06:46:29;34.50;32.50
13332;DHT22;6735;51.456;12.626;2022-08-04T06:48:55;34.50;32.70
13332;DHT22;6735;51.456;12.626;2022-08-04T06:51:22;34.40;32.80
13332;DHT22;6735;51.456;12.626;2022-08-04T06:53:48;34.20;32.70
13332;DHT22;6735;51.456;12.626;2022-08-04T06:56:15;34.40;32.30
13332;DHT22;6735;51.456;12.626;2022-08-04T06:58:46;34.70;31.90
13332;DHT22;6735;51.456;12.626;2022-08-04T07:01:12;34.70;32.00
13332;DHT22;6735;51.456;12.626;2022-08-04T07:03:39;34.70;32.10
13332;DHT22;6735;51.456;12.626;2022-08-04T07:06:05;34.70;31.80
13332;DHT22;6735;51.456;12.626;2022-08-04T07:08:32;34.50;31.80
13332;DHT22;6735;51.456;12.626;2022-08-04T07:10:59;34.20;31.90
13332;DHT22;6735;51.456;12.626;2022-08-04T07:13:26;34.20;32.00
13332;DHT22;6735;51.456;12.626;2022-08-04T07:15:54;34.30;31.60
13332;DHT22;6735;51.456;12.626;2022-08-04T07:18:20;34.60;31.50
13332;DHT22;6735;51.456;12.626;2022-08-04T07:20:46;34.40;31.50
13332;DHT22;6735;51.456;12.626;2022-08-04T07:23:13;34.00;32.10
13332;DHT22;6735;51.456;12.626;2022-08-04T07:25:42;34.00;32.00
13332;DHT22;6735;51.456;12.626;2022-08-04T07:28:08;34.20;32.00
13332;DHT22;6735;51.456;12.626;2022-08-04T07:30:34;34.20;31.80
13332;DHT22;6735;51.456;12.626;2022-08-04T07:33:01;33.90;32.40
13332;DHT22;6735;51.456;12.626;2022-08-04T07:35:27;34.00;32.20
13332;DHT22;6735;51.456;12.626;2022-08-04T07:37:53;34.10;32.30
13332;DHT22;6735;51.456;12.626;2022-08-04T07:40:19;33.80;32.40
13332;DHT22;6735;51.456;12.626;2022-08-04T07:42:45;34.00;32.30
13332;DHT22;6735;51.456;12.626;2022-08-04T07:45:12;34.00;32.00
13332;DHT22;6735;51.456;12.626;2022-08-04T07:47:41;34.20;31.70
13332;DHT22;6735;51.456;12.626;2022-08-04T07:50:10;34.40;31.40
13332;DHT22;6735;51.456;12.626;2022-08-04T07:52:37;34.20;31.30
13332;DHT22;6735;51.456;12.626;2022-08-04T07:55:03;34.30;30.80
13332;DHT22;6735;51.456;12.626;2022-08-04T07:57:29;34.30;30.60
13332;DHT22;6735;51.456;12.626;2022-08-04T07:59:54;34.10;31.40
13332;DHT22;6735;51.456;12.626;2022-08-04T08:02:21;34.60;30.80
13332;DHT22;6735;51.456;12.626;2022-08-04T08:04:48;34.70;30.60
13332;DHT22;6735;51.456;12.626;2022-08-04T08:07:14;34.80;30.40
13332;DHT22;6735;51.456;12.626;2022-08-04T08:09:39;35.10;30.00
13332;DHT22;6735;51.456;12.626;2022-08-04T08:12:07;35.10;29.80
13332;DHT22;6735;51.456;12.626;2022-08-04T08:14:34;35.00;29.60
13332;DHT22;6735;51.456;12.626;2022-08-04T08:17:00;34.90;29.60
13332;DHT22;6735;51.456;12.626;2022-08-04T08:19:27;34.90;29.60
13332;DHT22;6735;51.456;12.626;2022-08-04T08:21:52;35.20;29.40
13332;DHT22;6735;51.456;12.626;2022-08-04T08:24:18;35.50;29.00
13332;DHT22;6735;51.456;12.626;2022-08-04T08:26:44;35.50;29.00
13332;DHT22;6735;51.456;12.626;2022-08-04T08:29:09;35.50;29.00
13332;DHT22;6735;51.456;12.626;2022-08-04T08:31:35;35.50;28.90
13332;DHT22;6735;51.456;12.626;2022-08-04T08:34:01;35.80;28.50
13332;DHT22;6735;51.456;12.626;2022-08-04T08:36:40;35.70;28.80
13332;DHT22;6735;51.456;12.626;2022-08-04T08:42:07;36.10;27.60
13332;DHT22;6735;51.456;12.626;2022-08-04T08:44:55;35.80;28.00
13332;DHT22;6735;51.456;12.626;2022-08-04T08:50:50;36.20;27.60
13332;DHT22;6735;51.456;12.626;2022-08-04T08:53:44;36.40;26.80
13332;DHT22;6735;51.456;12.626;2022-08-04T08:56:37;36.80;26.20
13332;DHT22;6735;51.456;12.626;2022-08-04T08:59:22;36.90;25.90
13332;DHT22;6735;51.456;12.626;2022-08-04T09:02:11;36.80;25.80
13332;DHT22;6735;51.456;12.626;2022-08-04T09:05:01;37.00;25.60
13332;DHT22;6735;51.456;12.626;2022-08-04T09:08:03;36.90;26.10
13332;DHT22;6735;51.456;12.626;2022-08-04T09:10:43;37.10;25.20
13332;DHT22;6735;51.456;12.626;2022-08-04T09:13:19;36.90;25.20
13332;DHT22;6735;51.456;12.626;2022-08-04T09:16:01;36.90;25.60
13332;DHT22;6735;51.456;12.626;2022-08-04T09:18:55;36.70;25.80
13332;DHT22;6735;51.456;12.626;2022-08-04T09:27:49;37.30;25.10
13332;DHT22;6735;51.456;12.626;2022-08-04T09:30:14;37.50;25.00
13332;DHT22;6735;51.456;12.626;2022-08-04T09:32:51;37.80;25.00
13332;DHT22;6735;51.456;12.626;2022-08-04T09:35:47;37.80;24.60
13332;DHT22;6735;51.456;12.626;2022-08-04T09:38:32;37.60;24.00
13332;DHT22;6735;51.456;12.626;2022-08-04T09:44:07;37.90;24.70
13332;DHT22;6735;51.456;12.626;2022-08-04T09:46:44;37.90;23.30
13332;DHT22;6735;51.456;12.626;2022-08-04T09:49:22;38.00;23.70
13332;DHT22;6735;51.456;12.626;2022-08-04T09:59:57;38.20;24.30
13332;DHT22;6735;51.456;12.626;2022-08-04T10:02:28;38.20;23.90
13332;DHT22;6735;51.456;12.626;2022-08-04T10:04:55;38.20;24.30
13332;DHT22;6735;51.456;12.626;2022-08-04T10:07:44;38.30;24.00
13332;DHT22;6735;51.456;12.626;2022-08-04T10:10:47;38.40;24.30
13332;DHT22;6735;51.456;12.626;2022-08-04T10:13:25;38.30;24.10
13332;DHT22;6735;51.456;12.626;2022-08-04T10:19:05;38.20;24.20
13332;DHT22;6735;51.456;12.626;2022-08-04T10:21:41;38.10;24.50
13332;DHT22;6735;51.456;12.626;2022-08-04T10:24:38;38.20;24.40
13332;DHT22;6735;51.456;12.626;2022-08-04T10:27:08;38.20;23.50
13332;DHT22;6735;51.456;12.626;2022-08-04T10:29:42;38.00;24.30
13332;DHT22;6735;51.456;12.626;2022-08-04T10:32:23;38.20;23.90
13332;DHT22;6735;51.456;12.626;2022-08-04T10:35:06;38.30;23.50
13332;DHT22;6735;51.456;12.626;2022-08-04T10:37:59;38.40;23.00
13332;DHT22;6735;51.456;12.626;2022-08-04T10:40:35;38.70;23.80
13332;DHT22;6735;51.456;12.626;2022-08-04T10:46:00;38.90;23.50
13332;DHT22;6735;51.456;12.626;2022-08-04T10:48:35;38.50;23.60
13332;DHT22;6735;51.456;12.626;2022-08-04T10:53:50;38.30;23.00
13332;DHT22;6735;51.456;12.626;2022-08-04T10:56:33;38.40;23.30
13332;DHT22;6735;51.456;12.626;2022-08-04T10:59:05;38.50;23.00
13332;DHT22;6735;51.456;12.626;2022-08-04T11:01:39;38.70;22.50
13332;DHT22;6735;51.456;12.626;2022-08-04T11:04:14;38.70;22.60
13332;DHT22;6735;51.456;12.626;2022-08-04T11:06:42;38.60;22.40
13332;DHT22;6735;51.456;12.626;2022-08-04T11:09:10;38.50;22.70
13332;DHT22;6735;51.456;12.626;2022-08-04T11:11:40;38.80;22.40
13332;DHT22;6735;51.456;12.626;2022-08-04T11:14:18;38.90;22.30
13332;DHT22;6735;51.456;12.626;2022-08-04T11:17:00;38.90;21.90
13332;DHT22;6735;51.456;12.626;2022-08-04T11:19:36;38.70;22.10
13332;DHT22;6735;51.456;12.626;2022-08-04T11:22:31;38.70;22.30
13332;DHT22;6735;51.456;12.626;2022-08-04T11:25:12;38.70;22.50
13332;DHT22;6735;51.456;12.626;2022-08-04T11:30:14;38.50;22.60
13332;DHT22;6735;51.456;12.626;2022-08-04T11:35:27;38.50;22.50
13332;DHT22;6735;51.456;12.626;2022-08-04T11:38:05;38.70;22.20
13332;DHT22;6735;51.456;12.626;2022-08-04T11:40:40;38.10;21.90
13332;DHT22;6735;51.456;12.626;2022-08-04T11:43:11;38.20;22.50
13332;DHT22;6735;51.456;12.626;2022-08-04T11:45:44;38.10;22.40
13332;DHT22;6735;51.456;12.626;2022-08-04T11:48:18;38.20;22.50
13332;DHT22;6735;51.456;12.626;2022-08-04T11:50:50;38.50;22.20
13332;DHT22;6735;51.456;12.626;2022-08-04T11:53:23;38.70;22.50
13332;DHT22;6735;51.456;12.626;2022-08-04T11:55:51;38.80;21.90
13332;DHT22;6735;51.456;12.626;2022-08-04T11:58:19;38.90;22.00
13332;DHT22;6735;51.456;12.626;2022-08-04T12:01:10;39.10;21.70
13332;DHT22;6735;51.456;12.626;2022-08-04T12:04:01;39.20;21.70
13332;DHT22;6735;51.456;12.626;2022-08-04T12:12:16;39.00;21.10
13332;DHT22;6735;51.456;12.626;2022-08-04T12:15:03;39.00;21.20
13332;DHT22;6735;51.456;12.626;2022-08-04T12:17:51;38.80;21.60
13332;DHT22;6735;51.456;12.626;2022-08-04T12:20:20;39.00;21.20
13332;DHT22;6735;51.456;12.626;2022-08-04T12:22:49;38.80;21.70
13332;DHT22;6735;51.456;12.626;2022-08-04T12:25:20;39.00;21.60
13332;DHT22;6735;51.456;12.626;2022-08-04T12:27:52;39.30;20.90
13332;DHT22;6735;51.456;12.626;2022-08-04T12:30:19;39.10;21.40
13332;DHT22;6735;51.456;12.626;2022-08-04T12:33:03;39.30;21.20
13332;DHT22;6735;51.456;12.626;2022-08-04T12:35:33;39.50;21.20
13332;DHT22;6735;51.456;12.626;2022-08-04T12:38:13;39.70;21.00
13332;DHT22;6735;51.456;12.626;2022-08-04T12:40:52;39.90;21.10
13332;DHT22;6735;51.456;12.626;2022-08-04T12:43:23;39.80;21.20
13332;DHT22;6735;51.456;12.626;2022-08-04T12:45:55;39.80;21.30
13332;DHT22;6735;51.456;12.626;2022-08-04T12:48:23;39.70;21.00
13332;DHT22;6735;51.456;12.626;2022-08-04T12:50:52;39.80;21.20
13332;DHT22;6735;51.456;12.626;2022-08-04T12:53:25;39.70;21.60
13332;DHT22;6735;51.456;12.626;2022-08-04T12:55:52;39.60;21.50
13332;DHT22;6735;51.456;12.626;2022-08-04T12:58:22;39.40;21.40
13332;DHT22;6735;51.456;12.626;2022-08-04T13:01:12;39.50;21.40
13332;DHT22;6735;51.456;12.626;2022-08-04T13:03:49;39.80;20.90
13332;DHT22;6735;51.456;12.626;2022-08-04T13:06:23;39.70;20.70
13332;DHT22;6735;51.456;12.626;2022-08-04T13:08:49;39.90;20.60
13332;DHT22;6735;51.456;12.626;2022-08-04T13:11:16;39.60;21.10
13332;DHT22;6735;51.456;12.626;2022-08-04T13:13:43;39.40;21.40
13332;DHT22;6735;51.456;12.626;2022-08-04T13:16:10;39.20;21.50
13332;DHT22;6735;51.456;12.626;2022-08-04T13:18:46;39.40;21.30
13332;DHT22;6735;51.456;12.626;2022-08-04T13:21:18;39.50;21.20
13332;DHT22;6735;51.456;12.626;2022-08-04T13:23:51;39.60;21.10
13332;DHT22;6735;51.456;12.626;2022-08-04T13:26:18;39.60;21.40
13332;DHT22;6735;51.456;12.626;2022-08-04T13:28:46;39.80;21.00
13332;DHT22;6735;51.456;12.626;2022-08-04T13:31:18;39.80;21.00
13332;DHT22;6735;51.456;12.626;2022-08-04T13:33:46;39.90;20.70
13332;DHT22;6735;51.456;12.626;2022-08-04T13:36:13;40.10;20.60
13332;DHT22;6735;51.456;12.626;2022-08-04T13:38:47;40.20;20.20
13332;DHT22;6735;51.456;12.626;2022-08-04T13:41:16;40.20;20.20
13332;DHT22;6735;51.456;12.626;2022-08-04T13:43:46;40.00;20.40
13332;DHT22;6735;51.456;12.626;2022-08-04T13:46:16;39.70;20.90
13332;DHT22;6735;51.456;12.626;2022-08-04T13:48:43;39.50;20.90
13332;DHT22;6735;51.456;12.626;2022-08-04T13:51:10;39.40;21.30
13332;DHT22;6735;51.456;12.626;2022-08-04T13:53:38;39.40;21.00
13332;DHT22;6735;51.456;12.626;2022-08-04T13:56:07;39.30;21.30
13332;DHT22;6735;51.456;12.626;2022-08-04T13:58:39;39.40;21.50
13332;DHT22;6735;51.456;12.626;2022-08-04T14:01:19;39.70;21.10
13332;DHT22;6735;51.456;12.626;2022-08-04T14:03:53;39.70;20.60
13332;DHT22;6735;51.456;12.626;2022-08-04T14:08:57;39.80;20.60
13332;DHT22;6735;51.456;12.626;2022-08-04T14:11:36;39.90;20.50
13332;DHT22;6735;51.456;12.626;2022-08-04T14:14:22;40.00;21.00
13332;DHT22;6735;51.456;12.626;2022-08-04T14:19:29;39.90;20.30
13332;DHT22;6735;51.456;12.626;2022-08-04T14:21:54;40.00;20.50
13332;DHT22;6735;51.456;12.626;2022-08-04T14:24:24;39.70;20.70
13332;DHT22;6735;51.456;12.626;2022-08-04T14:26:50;39.40;20.70
13332;DHT22;6735;51.456;12.626;2022-08-04T14:29:17;39.20;21.10
13332;DHT22;6735;51.456;12.626;2022-08-04T14:31:43;39.20;21.10
13332;DHT22;6735;51.456;12.626;2022-08-04T14:34:27;39.30;21.10
13332;DHT22;6735;51.456;12.626;2022-08-04T14:36:53;39.50;21.10
13332;DHT22;6735;51.456;12.626;2022-08-04T14:39:35;39.50;21.10
13332;DHT22;6735;51.456;12.626;2022-08-04T14:42:01;39.40;21.00
13332;DHT22;6735;51.456;12.626;2022-08-04T14:44:26;39.50;21.40
13332;DHT22;6735;51.456;12.626;2022-08-04T14:46:54;39.40;20.70
13332;DHT22;6735;51.456;12.626;2022-08-04T14:49:20;39.20;20.90
13332;DHT22;6735;51.456;12.626;2022-08-04T14:51:59;38.90;20.90
13332;DHT22;6735;51.456;12.626;2022-08-04T14:54:32;38.80;20.70
13332;DHT22;6735;51.456;12.626;2022-08-04T14:57:05;38.80;21.20
13332;DHT22;6735;51.456;12.626;2022-08-04T14:59:45;38.80;21.50
13332;DHT22;6735;51.456;12.626;2022-08-04T15:02:12;38.90;21.50
13332;DHT22;6735;51.456;12.626;2022-08-04T15:04:38;38.90;21.60
13332;DHT22;6735;51.456;12.626;2022-08-04T15:07:05;38.90;21.80
13332;DHT22;6735;51.456;12.626;2022-08-04T15:09:32;38.80;21.80
13332;DHT22;6735;51.456;12.626;2022-08-04T15:11:58;38.70;21.80
13332;DHT22;6735;51.456;12.626;2022-08-04T15:14:24;38.60;21.90
13332;DHT22;6735;51.456;12.626;2022-08-04T15:16:50;38.50;22.40
13332;DHT22;6735;51.456;12.626;2022-08-04T15:19:15;38.50;22.20
13332;DHT22;6735;51.456;12.626;2022-08-04T15:21:41;38.30;22.50
13332;DHT22;6735;51.456;12.626;2022-08-04T15:24:07;38.20;22.60
13332;DHT22;6735;51.456;12.626;2022-08-04T15:26:37;38.10;22.80
13332;DHT22;6735;51.456;12.626;2022-08-04T15:29:24;38.00;23.00
13332;DHT22;6735;51.456;12.626;2022-08-04T15:31:52;38.00;22.50
13332;DHT22;6735;51.456;12.626;2022-08-04T15:34:19;37.80;22.90
13332;DHT22;6735;51.456;12.626;2022-08-04T15:36:57;37.70;22.90
13332;DHT22;6735;51.456;12.626;2022-08-04T15:39:43;37.70;23.20
13332;DHT22;6735;51.456;12.626;2022-08-04T15:42:33;37.60;23.60
13332;DHT22;6735;51.456;12.626;2022-08-04T15:45:22;37.40;23.00
13332;DHT22;6735;51.456;12.626;2022-08-04T15:48:21;37.50;23.20
13332;DHT22;6735;51.456;12.626;2022-08-04T15:53:26;37.10;23.50
13332;DHT22;6735;51.456;12.626;2022-08-04T15:55:51;37.10;23.70
13332;DHT22;6735;51.456;12.626;2022-08-04T15:58:18;37.30;23.70
13332;DHT22;6735;51.456;12.626;2022-08-04T16:19:08;36.10;25.00
13332;DHT22;6735;51.456;12.626;2022-08-04T16:21:53;36.00;25.50
13332;DHT22;6735;51.456;12.626;2022-08-04T16:24:27;36.00;25.80
13332;DHT22;6735;51.456;12.626;2022-08-04T16:26:55;35.90;25.70
13332;DHT22;6735;51.456;12.626;2022-08-04T16:34:53;35.70;26.70
13332;DHT22;6735;51.456;12.626;2022-08-04T16:37:22;35.70;26.40
13332;DHT22;6735;51.456;12.626;2022-08-04T16:39:48;35.70;26.50
13332;DHT22;6735;51.456;12.626;2022-08-04T16:42:30;35.60;26.60
13332;DHT22;6735;51.456;12.626;2022-08-04T16:45:10;35.40;27.30
13332;DHT22;6735;51.456;12.626;2022-08-04T16:50:23;35.20;27.40
13332;DHT22;6735;51.456;12.626;2022-08-04T16:52:50;35.20;27.40
13332;DHT22;6735;51.456;12.626;2022-08-04T16:55:17;35.00;27.50
13332;DHT22;6735;51.456;12.626;2022-08-04T16:57:47;35.00;27.80
13332;DHT22;6735;51.456;12.626;2022-08-04T17:00:14;34.90;27.90
13332;DHT22;6735;51.456;12.626;2022-08-04T17:02:40;34.80;28.10
13332;DHT22;6735;51.456;12.626;2022-08-04T17:05:19;34.70;28.30
13332;DHT22;6735;51.456;12.626;2022-08-04T17:07:53;34.50;28.40
13332;DHT22;6735;51.456;12.626;2022-08-04T17:10:29;34.40;28.60
13332;DHT22;6735;51.456;12.626;2022-08-04T17:12:54;34.30;28.90
13332;DHT22;6735;51.456;12.626;2022-08-04T17:15:21;34.30;29.20
13332;DHT22;6735;51.456;12.626;2022-08-04T17:17:47;34.10;29.40
13332;DHT22;6735;51.456;12.626;2022-08-04T17:20:13;34.00;29.50
13332;DHT22;6735;51.456;12.626;2022-08-04T17:22:39;33.80;29.80
13332;DHT22;6735;51.456;12.626;2022-08-04T17:25:04;33.70;30.10
13332;DHT22;6735;51.456;12.626;2022-08-04T17:27:30;33.70;30.50
13332;DHT22;6735;51.456;12.626;2022-08-04T17:29:56;33.50;30.70
13332;DHT22;6735;51.456;12.626;2022-08-04T17:32:22;33.40;31.10
13332;DHT22;6735;51.456;12.626;2022-08-04T17:34:49;33.20;31.30
13332;DHT22;6735;51.456;12.626;2022-08-04T17:37:16;33.20;31.50
13332;DHT22;6735;51.456;12.626;2022-08-04T17:39:42;33.10;31.70
13332;DHT22;6735;51.456;12.626;2022-08-04T17:42:07;33.00;32.00
13332;DHT22;6735;51.456;12.626;2022-08-04T17:44:37;32.80;32.30
13332;DHT22;6735;51.456;12.626;2022-08-04T17:47:29;32.70;32.70
13332;DHT22;6735;51.456;12.626;2022-08-04T17:50:06;32.60;33.10
13332;DHT22;6735;51.456;12.626;2022-08-04T17:52:32;32.50;33.50
13332;DHT22;6735;51.456;12.626;2022-08-04T17:54:58;32.30;33.30
13332;DHT22;6735;51.456;12.626;2022-08-04T17:57:26;32.20;33.50
13332;DHT22;6735;51.456;12.626;2022-08-04T17:59:53;32.10;33.80
13332;DHT22;6735;51.456;12.626;2022-08-04T18:02:27;32.00;34.10
13332;DHT22;6735;51.456;12.626;2022-08-04T18:04:54;31.90;34.80
13332;DHT22;6735;51.456;12.626;2022-08-04T18:07:36;31.80;34.70
13332;DHT22;6735;51.456;12.626;2022-08-04T18:10:04;31.70;35.30
13332;DHT22;6735;51.456;12.626;2022-08-04T18:12:31;31.50;35.10
13332;DHT22;6735;51.456;12.626;2022-08-04T18:15:00;31.40;35.30
13332;DHT22;6735;51.456;12.626;2022-08-04T18:17:36;31.30;35.60
13332;DHT22;6735;51.456;12.626;2022-08-04T18:20:10;31.20;36.60
13332;DHT22;6735;51.456;12.626;2022-08-04T18:22:39;31.00;36.70
13332;DHT22;6735;51.456;12.626;2022-08-04T18:25:07;30.90;36.80
13332;DHT22;6735;51.456;12.626;2022-08-04T18:27:33;30.80;37.10
13332;DHT22;6735;51.456;12.626;2022-08-04T18:29:59;30.70;37.30
13332;DHT22;6735;51.456;12.626;2022-08-04T18:32:24;30.60;37.70